CYNL

METAR CYNL 230500Z AUTO 00000KT 9SM CLR 09/09 A3009 RMK AO1 SLP190
METAR
LOCATION
CYNL
DATE - TIME
230500Z
WIND
CALM WIND
VISIBILITY
9SM
RUNWAY VISUAL RANGE
NOT REPORTED
WEATHER
CLOUDINESS
CLR
TEMP / DEWPOINT
9 ºC / 9 ºC
ALTIMETER
30.09 in. Hg
RECENT WEATHER
NOT REPORTED
WIND SHEAR
NOT REPORTED
REMARKS
RMK AO1 SLP190
SEA LEVEL PRESSURE: hPa

CYNL

SPECI CYNL 230459Z AUTO 00000KT 2 1/2SM CLR 09/09 A3009 RMK AO1 SLP191
SPECI
LOCATION
CYNL
DATE - TIME
230459Z
WIND
CALM WIND
VISIBILITY
2 1/2SM
RUNWAY VISUAL RANGE
NOT REPORTED
WEATHER
CLOUDINESS
CLR
TEMP / DEWPOINT
9 ºC / 9 ºC
ALTIMETER
30.09 in. Hg
RECENT WEATHER
NOT REPORTED
WIND SHEAR
NOT REPORTED
REMARKS
RMK AO1 SLP191
SEA LEVEL PRESSURE: hPa

CYNL

SPECI CYNL 230458Z AUTO 00000KT 3/4SM CLR 09/09 A3009 RMK AO1 SLP191
SPECI
LOCATION
CYNL
DATE - TIME
230458Z
WIND
CALM WIND
VISIBILITY
3/4SM
RUNWAY VISUAL RANGE
NOT REPORTED
WEATHER
CLOUDINESS
CLR
TEMP / DEWPOINT
9 ºC / 9 ºC
ALTIMETER
30.09 in. Hg
RECENT WEATHER
NOT REPORTED
WIND SHEAR
NOT REPORTED
REMARKS
RMK AO1 SLP191
SEA LEVEL PRESSURE: hPa

Your time UTC time
 
 
Weather data provided by AXYS Technologies Inc., www.axystechnologies.com
 
Station History